»·PEaware :: UAL722 KSAN-KSFO

UAL722 :: KSAN-KSFO

FLIGHT INFORMATION

Flight Status: Arrived
Operator:
United Airlines
More flights by this operator :: More flights under this callsign
Pilot: Mike S. (2156)
Aircraft: Unknown
(/L)
More flights by this aircraft type
Origin: KSAN San Diego Intl-Lindbergh
United States
Destination: KSFO San Francisco Intl
United States
More flights between these airports :: More routes between these airports
Route: +PEBLE6 SXC BSR BSR3
File this flight plan on PilotEdge
Remarks:
Altitude:
(Current/Filed)
32,000ft
Speed:
(Current/Filed)
375kts
Departed: 12-Aug-20 12:09 PM
Arrived: 12-Aug-20 01:14 PM
Distance/Time
Traveled:
388nm/1:04
Distance/Time
To Go:
Arrived

Flight Plot

Page will automatically refresh every two minutes.

Flight plan parsing failed; only flown route is shown


Map Options




Map Legend


Flown Route
Filed Route
Departure Airport
Arrival Airport
Navaid (VOR, NDB)
Fix

Horizontal Profiles

Position Reports

Time Latitude Longitude Heading Altitude Ground
Speed
12-Aug-20 11:49 32.733947 -117.200444 255 24ft 0kts
12-Aug-20 11:50 32.733947 -117.200444 255 24ft 0kts
12-Aug-20 11:50 32.733947 -117.200444 255 24ft 0kts
12-Aug-20 11:52 32.733947 -117.200444 255 24ft 0kts
12-Aug-20 11:53 32.733947 -117.200444 255 24ft 0kts
12-Aug-20 11:53 32.733947 -117.200444 255 24ft 0kts
12-Aug-20 11:55 32.733947 -117.200444 255 24ft 0kts
12-Aug-20 11:55 32.733947 -117.200444 255 24ft 0kts
12-Aug-20 11:56 32.733947 -117.200444 255 24ft 0kts
12-Aug-20 11:58 32.733947 -117.200444 255 24ft 0kts
12-Aug-20 11:58 32.733947 -117.200444 255 24ft 0kts
12-Aug-20 11:59 32.733947 -117.200445 255 24ft 0kts
12-Aug-20 12:00 32.733879 -117.199638 320 24ft 3kts
12-Aug-20 12:01 32.733613 -117.199508 345 24ft 0kts
12-Aug-20 12:02 32.733613 -117.199508 345 24ft 0kts
12-Aug-20 12:03 32.734765 -117.199311 75 24ft 16kts
12-Aug-20 12:04 32.732787 -117.190879 105 24ft 25kts
12-Aug-20 12:05 32.730912 -117.182908 106 24ft 29kts
12-Aug-20 12:06 32.729503 -117.176987 82 24ft 0kts
12-Aug-20 12:07 32.729677 -117.175896 74 24ft 20kts
12-Aug-20 12:08 32.735130 -117.196259 286 182ft 169kts
12-Aug-20 12:09 32.749078 -117.250237 299 2918ft 193kts
12-Aug-20 12:10 32.788398 -117.305620 302 5006ft 249kts
12-Aug-20 12:11 32.829523 -117.381765 301 7560ft 286kts
12-Aug-20 12:12 32.879012 -117.458149 317 10417ft 308kts
12-Aug-20 12:13 32.947854 -117.530493 316 12974ft 339kts
12-Aug-20 12:14 33.019706 -117.607781 315 15838ft 355kts
12-Aug-20 12:15 33.090241 -117.692530 302 18481ft 366kts
12-Aug-20 12:16 33.152604 -117.791372 305 21004ft 379kts
12-Aug-20 12:17 33.204006 -117.901178 288 23247ft 384kts
12-Aug-20 12:18 33.243551 -118.021706 288 25349ft 393kts
12-Aug-20 12:19 33.284361 -118.144609 287 27341ft 401kts
12-Aug-20 12:20 33.325697 -118.269908 287 29140ft 409kts
12-Aug-20 12:21 33.368496 -118.397199 292 30765ft 419kts
12-Aug-20 12:22 33.448938 -118.504076 311 31976ft 446kts
12-Aug-20 12:23 33.542187 -118.609228 311 32030ft 469kts
12-Aug-20 12:24 33.636676 -118.716521 311 32017ft 467kts
12-Aug-20 12:25 33.731216 -118.823873 311 32011ft 467kts
12-Aug-20 12:26 33.825523 -118.931092 311 31999ft 467kts
12-Aug-20 12:27 33.920213 -119.038832 311 32000ft 467kts
12-Aug-20 12:28 34.014602 -119.146325 311 32001ft 466kts
12-Aug-20 12:29 34.108364 -119.253225 311 32003ft 464kts
12-Aug-20 12:30 34.202263 -119.360379 311 31998ft 466kts
12-Aug-20 12:31 34.296335 -119.467798 311 31996ft 465kts
12-Aug-20 12:32 34.390257 -119.575205 311 31994ft 465kts
12-Aug-20 12:33 34.484365 -119.682862 311 31994ft 465kts
12-Aug-20 12:34 34.578262 -119.790424 311 31993ft 465kts
12-Aug-20 12:35 34.672505 -119.898472 311 31992ft 464kts
12-Aug-20 12:36 34.741333 -119.977462 311 31991ft 464kts
12-Aug-20 12:47 35.791683 -121.189756 311 31983ft 460kts
12-Aug-20 12:48 35.885032 -121.298146 311 31987ft 460kts
12-Aug-20 12:49 35.978159 -121.406373 311 31993ft 460kts
12-Aug-20 12:50 36.068165 -121.510888 310 32005ft 421kts
12-Aug-20 12:51 36.151261 -121.607827 310 30777ft 404kts
12-Aug-20 12:52 36.239099 -121.693397 319 29100ft 402kts
12-Aug-20 12:53 36.330296 -121.771270 319 27436ft 393kts
12-Aug-20 12:54 36.418926 -121.848329 319 25809ft 385kts
12-Aug-20 12:55 36.516389 -121.898330 343 22951ft 383kts
12-Aug-20 12:56 36.617672 -121.927125 343 20112ft 364kts
12-Aug-20 12:57 36.714019 -121.955523 344 17318ft 347kts
12-Aug-20 12:58 36.806484 -121.980833 347 14572ft 334kts
12-Aug-20 12:59 36.896193 -122.004110 347 12491ft 324kts
12-Aug-20 13:00 36.983182 -122.026888 347 10883ft 316kts
12-Aug-20 13:01 37.068874 -122.049346 347 10032ft 313kts
12-Aug-20 13:02 37.151688 -122.071137 347 9990ft 293kts
12-Aug-20 13:03 37.232552 -122.092502 347 9259ft 295kts
12-Aug-20 13:04 37.308705 -122.112656 347 8261ft 255kts
12-Aug-20 13:05 37.373423 -122.129789 347 6610ft 230kts
12-Aug-20 13:06 37.433592 -122.128252 4 4969ft 201kts
12-Aug-20 13:07 37.486206 -122.134939 325 3994ft 191kts
12-Aug-20 13:08 37.529611 -122.172165 316 3003ft 185kts
12-Aug-20 13:09 37.556440 -122.226791 297 2328ft 176kts
12-Aug-20 13:10 37.578763 -122.279881 298 1430ft 161kts
12-Aug-20 13:11 37.597993 -122.325658 298 623ft 141kts
12-Aug-20 13:12 37.615802 -122.368118 298 22ft 104kts
12-Aug-20 13:13 37.618983 -122.378691 266 21ft 20kts

Navigation Log

Ident Type
Flight plan parsing failed, navigation log unavailable